createdAt,value
2023-01-29T00:01:23.464Z,5.57
2023-01-29T00:03:53.327Z,5.32
2023-01-29T00:06:20.457Z,5.95
2023-01-29T00:08:47.363Z,5.65
2023-01-29T00:11:14.113Z,5.40
2023-01-29T00:13:41.068Z,5.30
2023-01-29T00:16:08.117Z,4.75
2023-01-29T00:18:38.638Z,5.32
2023-01-29T00:21:18.369Z,5.00
2023-01-29T00:23:45.612Z,5.10
2023-01-29T00:26:12.846Z,4.75
2023-01-29T00:28:44.143Z,7.07
2023-01-29T00:31:19.692Z,5.35
2023-01-29T00:33:47.475Z,7.95
2023-01-29T00:36:15.412Z,6.07
2023-01-29T00:38:42.855Z,5.13
2023-01-29T00:41:33.315Z,8.50
2023-01-29T00:44:20.062Z,5.40
2023-01-29T00:46:46.874Z,5.30
2023-01-29T00:49:13.652Z,6.28
2023-01-29T00:51:40.450Z,5.38
2023-01-29T00:54:07.803Z,5.47
2023-01-29T00:56:36.310Z,5.50
2023-01-29T00:59:03.931Z,5.33
2023-01-29T01:01:49.788Z,6.70
2023-01-29T01:04:16.657Z,5.97
2023-01-29T01:06:43.373Z,5.80
2023-01-29T01:09:29.059Z,7.10
2023-01-29T01:11:55.888Z,8.93
2023-01-29T01:14:22.660Z,5.63
2023-01-29T01:16:49.552Z,5.93
2023-01-29T01:19:16.708Z,10.00
2023-01-29T01:21:45.503Z,6.07
2023-01-29T01:24:12.963Z,6.75
2023-01-29T01:26:39.918Z,5.60
2023-01-29T01:29:06.644Z,6.88
2023-01-29T01:31:33.457Z,5.03
2023-01-29T01:34:00.735Z,5.47
2023-01-29T01:36:27.433Z,5.85
2023-01-29T01:38:54.892Z,5.60
2023-01-29T01:41:22.952Z,6.18
2023-01-29T01:43:57.572Z,5.40
2023-01-29T01:46:25.481Z,6.60
2023-01-29T01:48:59.727Z,5.93
2023-01-29T01:51:29.206Z,5.75
2023-01-29T01:54:12.544Z,7.32
2023-01-29T01:56:42.782Z,8.10
2023-01-29T01:59:16.452Z,9.02
2023-01-29T02:01:50.010Z,5.30
2023-01-29T02:04:42.985Z,4.90
2023-01-29T02:07:31.485Z,4.32
2023-01-29T02:10:14.146Z,6.20
2023-01-29T02:12:41.110Z,5.60
2023-01-29T02:15:08.354Z,4.55
2023-01-29T02:17:35.279Z,7.90
2023-01-29T02:20:24.309Z,5.93
2023-01-29T02:23:23.325Z,5.53
2023-01-29T02:25:59.424Z,5.95
2023-01-29T02:28:35.142Z,5.90
2023-01-29T02:31:29.369Z,5.97
2023-01-29T02:34:26.014Z,5.72
2023-01-29T02:37:11.996Z,5.53
2023-01-29T02:39:53.596Z,4.70
2023-01-29T02:42:41.628Z,5.38
2023-01-29T02:45:12.961Z,6.90
2023-01-29T02:47:50.902Z,5.30
2023-01-29T02:50:34.612Z,6.53
2023-01-29T02:53:15.215Z,5.97
2023-01-29T02:55:47.233Z,5.18
2023-01-29T02:58:24.263Z,5.38
2023-01-29T03:00:52.449Z,5.88
2023-01-29T03:03:42.769Z,4.72
2023-01-29T03:06:20.283Z,4.80
2023-01-29T03:08:58.510Z,6.47
2023-01-29T03:11:34.064Z,5.88
2023-01-29T03:14:10.393Z,6.30
2023-01-29T03:16:53.555Z,6.25
2023-01-29T03:19:40.980Z,5.82
2023-01-29T03:22:18.395Z,5.70
2023-01-29T03:25:06.614Z,5.35
2023-01-29T03:28:11.780Z,6.28
2023-01-29T03:31:07.654Z,4.65
2023-01-29T03:33:58.518Z,6.55
2023-01-29T03:36:37.987Z,6.57
2023-01-29T03:39:09.491Z,5.03
2023-01-29T03:41:40.815Z,5.35
2023-01-29T03:44:17.534Z,5.22
2023-01-29T03:47:05.207Z,4.80
2023-01-29T03:49:56.456Z,5.95
2023-01-29T03:52:28.605Z,5.28
2023-01-29T03:55:40.585Z,6.20
2023-01-29T03:58:31.035Z,6.57
2023-01-29T04:01:02.289Z,4.95
2023-01-29T04:03:35.432Z,8.10
2023-01-29T04:06:20.106Z,5.57
2023-01-29T04:09:07.889Z,6.38
2023-01-29T04:14:04.561Z,4.88
2023-01-29T04:16:38.017Z,6.47
2023-01-29T04:19:13.686Z,5.43
2023-01-29T04:21:43.206Z,5.28
2023-01-29T04:24:10.639Z,5.65
2023-01-29T04:27:07.573Z,5.40
2023-01-29T04:29:46.625Z,5.35
2023-01-29T04:35:05.499Z,6.40
2023-01-29T04:37:42.534Z,7.30
2023-01-29T04:40:12.277Z,5.20
2023-01-29T04:42:49.439Z,5.70
2023-01-29T04:45:28.615Z,5.35
2023-01-29T04:48:22.786Z,6.57
2023-01-29T04:51:00.141Z,6.35
2023-01-29T04:53:29.592Z,6.22
2023-01-29T04:58:37.867Z,6.25
2023-01-29T05:01:07.384Z,6.93
2023-01-29T05:06:02.259Z,6.55
2023-01-29T05:08:30.191Z,6.18
2023-01-29T05:11:00.223Z,6.22
2023-01-29T05:13:29.468Z,8.35
2023-01-29T05:15:58.070Z,7.60
2023-01-29T05:18:24.897Z,6.15
2023-01-29T05:20:51.912Z,5.88
2023-01-29T05:23:21.006Z,6.38
2023-01-29T05:25:48.901Z,6.25
2023-01-29T05:28:18.405Z,6.93
2023-01-29T05:30:49.965Z,6.25
2023-01-29T05:33:28.350Z,6.07
2023-01-29T05:35:56.155Z,5.65
2023-01-29T05:38:23.263Z,6.15
2023-01-29T05:40:50.153Z,7.18
2023-01-29T05:43:19.259Z,6.75
2023-01-29T05:45:57.244Z,7.68
2023-01-29T05:48:25.005Z,6.50
2023-01-29T05:50:51.938Z,5.45
2023-01-29T05:53:18.703Z,7.35
2023-01-29T05:55:48.745Z,6.78
2023-01-29T05:58:15.586Z,7.93
2023-01-29T06:00:42.466Z,6.10
2023-01-29T06:03:09.243Z,6.82
2023-01-29T06:05:39.643Z,7.28
2023-01-29T06:08:07.197Z,7.53
2023-01-29T06:10:34.105Z,6.40
2023-01-29T06:13:00.810Z,6.40
2023-01-29T06:15:27.579Z,6.65
2023-01-29T06:17:55.093Z,7.15
2023-01-29T06:20:22.179Z,7.30
2023-01-29T06:22:48.940Z,6.68
2023-01-29T06:25:15.785Z,6.00
2023-01-29T06:27:42.524Z,5.97
2023-01-29T06:30:09.878Z,6.68
2023-01-29T06:32:36.720Z,6.45
2023-01-29T06:35:03.901Z,7.15
2023-01-29T06:37:30.639Z,7.65
2023-01-29T06:39:57.402Z,6.43
2023-01-29T06:42:27.861Z,7.70
2023-01-29T06:44:58.174Z,7.70
2023-01-29T06:47:25.302Z,6.95
2023-01-29T06:49:52.292Z,7.82
2023-01-29T06:52:19.068Z,7.18
2023-01-29T06:54:45.994Z,7.65
2023-01-29T06:57:12.713Z,8.65
2023-01-29T06:59:39.411Z,7.13
2023-01-29T07:02:06.388Z,6.13
2023-01-29T07:04:33.088Z,8.13
2023-01-29T07:07:00.115Z,6.80
2023-01-29T07:09:26.891Z,6.40
2023-01-29T07:11:53.611Z,7.68
2023-01-29T07:14:20.311Z,7.05
2023-01-29T07:16:47.159Z,7.85
2023-01-29T07:19:13.968Z,7.75
2023-01-29T07:21:40.743Z,9.45
2023-01-29T07:24:07.813Z,7.20
2023-01-29T07:26:34.660Z,8.50
2023-01-29T07:29:01.381Z,6.22
2023-01-29T07:31:28.359Z,7.32
2023-01-29T07:33:55.709Z,7.53
2023-01-29T07:36:24.039Z,7.63
2023-01-29T07:38:51.408Z,6.93
2023-01-29T07:41:18.661Z,6.70
2023-01-29T07:43:46.570Z,7.80
2023-01-29T07:46:13.322Z,7.38
2023-01-29T07:48:40.113Z,6.72
2023-01-29T07:51:06.993Z,7.25
2023-01-29T07:53:33.739Z,7.47
2023-01-29T07:56:00.476Z,6.68
2023-01-29T07:58:27.241Z,10.88
2023-01-29T08:00:54.009Z,16.20
2023-01-29T08:03:20.812Z,18.45
2023-01-29T08:05:48.272Z,15.25
2023-01-29T08:08:15.251Z,13.88
2023-01-29T08:10:42.021Z,13.85
2023-01-29T08:13:09.033Z,13.65
2023-01-29T08:15:38.022Z,15.95
2023-01-29T08:18:05.947Z,11.02
2023-01-29T08:20:32.740Z,11.82
2023-01-29T08:23:07.933Z,10.30
2023-01-29T08:25:35.747Z,14.40
2023-01-29T08:28:02.521Z,9.93
2023-01-29T08:30:31.401Z,11.02
2023-01-29T08:32:58.269Z,11.57
2023-01-29T08:35:25.432Z,10.70
2023-01-29T08:37:56.194Z,13.43
2023-01-29T08:40:23.839Z,7.93
2023-01-29T08:42:50.645Z,10.18
2023-01-29T08:45:17.455Z,10.85
2023-01-29T08:47:48.524Z,8.63
2023-01-29T08:50:16.728Z,7.75
2023-01-29T08:52:44.285Z,9.23
2023-01-29T08:55:11.499Z,9.63
2023-01-29T08:57:38.910Z,10.77
2023-01-29T09:00:06.849Z,9.45
2023-01-29T09:02:33.737Z,17.13
2023-01-29T09:05:00.551Z,9.38
2023-01-29T09:07:28.584Z,8.32
2023-01-29T09:09:55.473Z,7.43
2023-01-29T09:12:22.235Z,8.32
2023-01-29T09:14:48.995Z,7.82
2023-01-29T09:17:15.726Z,12.05
2023-01-29T09:19:42.415Z,7.93
2023-01-29T09:22:10.985Z,9.90
2023-01-29T09:24:38.673Z,8.25
2023-01-29T09:27:06.174Z,8.13
2023-01-29T09:29:35.655Z,11.40
2023-01-29T09:32:04.539Z,19.55
2023-01-29T09:34:31.274Z,9.68
2023-01-29T09:36:58.040Z,12.35
2023-01-29T09:39:24.745Z,15.00
2023-01-29T09:42:06.193Z,8.25
2023-01-29T09:44:54.553Z,8.15
2023-01-29T09:47:22.685Z,11.07
2023-01-29T09:50:05.425Z,9.52
2023-01-29T09:52:36.230Z,10.38
2023-01-29T09:55:18.827Z,7.20
2023-01-29T09:57:50.330Z,7.72
2023-01-29T10:00:23.656Z,9.95
2023-01-29T10:03:15.882Z,7.53
2023-01-29T10:05:52.669Z,6.68
2023-01-29T10:08:37.709Z,7.53
2023-01-29T10:11:35.248Z,5.60
2023-01-29T10:14:31.130Z,7.53
2023-01-29T10:17:22.016Z,5.68
2023-01-29T10:20:20.594Z,8.00
2023-01-29T10:23:14.981Z,5.10
2023-01-29T10:25:42.796Z,6.47
2023-01-29T10:28:28.819Z,5.03
2023-01-29T10:31:00.411Z,7.32
2023-01-29T10:33:49.005Z,7.15
2023-01-29T10:36:35.970Z,4.50
2023-01-29T10:39:02.695Z,5.80
2023-01-29T10:42:05.836Z,6.75
2023-01-29T10:45:07.191Z,8.43
2023-01-29T10:48:04.299Z,5.20
2023-01-29T10:50:46.311Z,5.13
2023-01-29T10:53:22.898Z,4.78
2023-01-29T10:56:14.039Z,7.28
2023-01-29T10:59:02.945Z,5.13
2023-01-29T11:01:29.767Z,4.82
2023-01-29T11:04:02.817Z,5.60
2023-01-29T11:06:34.335Z,8.23
2023-01-29T11:09:26.343Z,4.47
2023-01-29T11:12:02.537Z,4.82
2023-01-29T11:14:55.254Z,5.75
2023-01-29T11:17:23.946Z,4.03
2023-01-29T11:19:52.163Z,5.03
2023-01-29T11:22:23.332Z,5.53
2023-01-29T11:25:21.407Z,13.80
2023-01-29T11:27:53.342Z,30.25
2023-01-29T11:30:24.564Z,53.05
2023-01-29T11:33:18.262Z,70.63
2023-01-29T11:35:45.106Z,94.97
2023-01-29T11:38:21.828Z,70.85
2023-01-29T11:40:48.548Z,67.35
2023-01-29T11:43:44.362Z,95.18
2023-01-29T11:46:15.475Z,140.75
2023-01-29T11:48:45.335Z,124.55
2023-01-29T11:51:39.867Z,126.68
2023-01-29T11:54:06.683Z,132.65
2023-01-29T11:56:42.018Z,178.70
2023-01-29T11:59:37.071Z,183.98
2023-01-29T12:02:31.497Z,197.02
2023-01-29T12:05:04.811Z,182.70
2023-01-29T12:07:32.005Z,175.32
2023-01-29T12:09:59.701Z,167.35
2023-01-29T12:12:44.192Z,164.95
2023-01-29T12:15:19.921Z,163.57
2023-01-29T12:18:09.730Z,152.65
2023-01-29T12:20:42.649Z,146.25
2023-01-29T12:23:24.232Z,129.65
2023-01-29T12:26:16.038Z,108.32
2023-01-29T12:29:05.831Z,130.65
2023-01-29T12:31:33.313Z,111.55
2023-01-29T12:34:27.922Z,108.57
2023-01-29T12:37:48.879Z,96.90
2023-01-29T12:40:17.124Z,91.57
2023-01-29T12:42:48.309Z,88.65
2023-01-29T12:45:19.848Z,91.15
2023-01-29T12:47:52.815Z,89.55
2023-01-29T12:50:22.140Z,83.25
2023-01-29T12:53:05.470Z,82.55
2023-01-29T12:55:41.385Z,81.05
2023-01-29T12:58:44.108Z,79.03
2023-01-29T13:01:37.198Z,64.50
2023-01-29T13:04:07.058Z,68.47
2023-01-29T13:06:43.413Z,62.63
2023-01-29T13:09:25.397Z,60.15
2023-01-29T13:11:57.466Z,52.50
2023-01-29T13:14:28.815Z,52.92
2023-01-29T13:17:03.132Z,53.88
2023-01-29T13:19:35.149Z,53.50
2023-01-29T13:22:05.437Z,48.67
2023-01-29T13:24:37.466Z,49.67
2023-01-29T13:27:04.287Z,53.38
2023-01-29T13:29:31.587Z,44.38
2023-01-29T13:32:00.106Z,43.30
2023-01-29T13:34:33.221Z,44.22
2023-01-29T13:37:02.888Z,40.20
2023-01-29T13:39:35.036Z,38.53
2023-01-29T13:42:04.228Z,50.67
2023-01-29T13:47:05.105Z,34.53
2023-01-29T13:49:47.058Z,35.38
2023-01-29T13:52:35.807Z,32.72
2023-01-29T13:55:08.765Z,34.03
2023-01-29T13:57:46.080Z,33.80
2023-01-29T14:00:21.702Z,34.65
2023-01-29T14:03:08.783Z,28.77
2023-01-29T14:05:39.977Z,27.10
2023-01-29T14:08:09.741Z,27.25
2023-01-29T14:10:37.902Z,28.73
2023-01-29T14:13:04.579Z,28.90
2023-01-29T14:15:34.514Z,27.33
2023-01-29T14:18:19.432Z,27.77
2023-01-29T14:20:51.856Z,24.15
2023-01-29T14:23:25.138Z,26.25
2023-01-29T14:25:53.561Z,22.40
2023-01-29T14:28:26.901Z,21.55
2023-01-29T14:30:55.010Z,27.48
2023-01-29T14:33:35.281Z,22.55
2023-01-29T14:36:10.787Z,20.42
2023-01-29T14:38:37.761Z,26.33
2023-01-29T14:41:29.531Z,20.88
2023-01-29T14:44:33.825Z,22.33
2023-01-29T14:47:00.542Z,21.52
2023-01-29T14:49:55.349Z,20.48
2023-01-29T14:52:42.430Z,17.42
2023-01-29T14:55:16.135Z,18.83
2023-01-29T14:57:43.198Z,17.10
2023-01-29T15:00:21.570Z,19.73
2023-01-29T15:02:56.451Z,18.17
2023-01-29T15:05:32.860Z,18.03
2023-01-29T15:08:14.162Z,17.88
2023-01-29T15:10:45.513Z,18.42
2023-01-29T15:13:35.589Z,15.02
2023-01-29T15:16:11.185Z,13.02
2023-01-29T15:18:40.641Z,14.65
2023-01-29T15:21:19.717Z,16.65
2023-01-29T15:23:50.074Z,15.63
2023-01-29T15:26:21.966Z,17.88
2023-01-29T15:29:03.367Z,12.70
2023-01-29T15:31:31.455Z,15.68
2023-01-29T15:34:06.420Z,12.68
2023-01-29T15:36:33.424Z,12.48
2023-01-29T15:39:24.563Z,18.42
2023-01-29T15:42:04.159Z,10.98
2023-01-29T15:44:30.888Z,12.63
2023-01-29T15:46:59.838Z,14.88
2023-01-29T15:49:36.665Z,13.32
2023-01-29T15:52:07.747Z,11.15
2023-01-29T15:54:35.252Z,11.18
2023-01-29T15:57:03.148Z,16.00
2023-01-29T15:59:36.833Z,12.55
2023-01-29T16:02:40.957Z,11.20
2023-01-29T16:05:22.993Z,10.70
2023-01-29T16:07:50.785Z,10.45
2023-01-29T16:10:28.711Z,10.80
2023-01-29T16:12:55.850Z,12.55
2023-01-29T16:15:53.900Z,12.52
2023-01-29T16:18:23.250Z,10.68
2023-01-29T16:20:54.404Z,11.52
2023-01-29T16:23:27.607Z,11.65
2023-01-29T16:25:56.855Z,11.52
2023-01-29T16:31:02.691Z,9.32
2023-01-29T16:33:39.188Z,10.35
2023-01-29T16:36:34.131Z,8.55
2023-01-29T16:42:10.729Z,14.93
2023-01-29T16:44:39.587Z,11.73
2023-01-29T16:47:24.826Z,11.63
2023-01-29T16:50:00.783Z,10.60
2023-01-29T16:52:32.963Z,7.05
2023-01-29T16:55:21.481Z,9.80
2023-01-29T16:57:53.254Z,6.97
2023-01-29T17:00:26.139Z,7.88
2023-01-29T17:02:56.177Z,9.93
2023-01-29T17:05:27.251Z,9.82
2023-01-29T17:07:57.367Z,7.60
2023-01-29T17:10:25.587Z,9.02
2023-01-29T17:12:55.291Z,7.10
2023-01-29T17:15:47.397Z,7.05
2023-01-29T17:18:24.834Z,7.65
2023-01-29T17:20:54.839Z,7.72
2023-01-29T17:23:22.170Z,8.52
2023-01-29T17:25:49.084Z,8.75
2023-01-29T17:28:17.513Z,7.63
2023-01-29T17:30:50.621Z,7.13
2023-01-29T17:33:22.677Z,7.22
2023-01-29T17:38:26.024Z,6.25
2023-01-29T17:41:02.482Z,12.80
2023-01-29T17:43:29.165Z,8.75
2023-01-29T17:45:55.912Z,8.15
2023-01-29T17:48:23.489Z,11.18
2023-01-29T17:50:55.766Z,10.57
2023-01-29T17:53:24.816Z,9.00
2023-01-29T17:55:53.357Z,7.95
2023-01-29T17:58:25.561Z,12.45
2023-01-29T18:00:53.300Z,8.30
2023-01-29T18:03:20.451Z,8.40
2023-01-29T18:05:48.846Z,8.07
2023-01-29T18:08:32.534Z,8.13
2023-01-29T18:10:59.906Z,9.75
2023-01-29T18:13:26.755Z,9.25
2023-01-29T18:15:53.483Z,8.10
2023-01-29T18:18:22.037Z,7.80
2023-01-29T18:20:49.108Z,6.80
2023-01-29T18:23:16.248Z,6.75
2023-01-29T18:25:46.052Z,7.85
2023-01-29T18:28:17.171Z,7.68
2023-01-29T18:30:47.028Z,10.48
2023-01-29T18:33:14.421Z,7.93
2023-01-29T18:35:41.121Z,10.85
2023-01-29T18:38:07.877Z,6.80
2023-01-29T18:40:34.664Z,7.93
2023-01-29T18:43:01.655Z,9.82
2023-01-29T18:45:28.771Z,10.82
2023-01-29T18:47:55.993Z,7.60
2023-01-29T18:50:26.368Z,7.25
2023-01-29T18:52:54.147Z,9.23
2023-01-29T18:55:21.650Z,8.27
2023-01-29T18:58:31.738Z,8.35
2023-01-29T19:00:35.007Z,6.00
2023-01-29T19:03:02.216Z,8.55
2023-01-29T19:05:28.945Z,8.32
2023-01-29T19:07:55.780Z,8.48
2023-01-29T19:10:22.645Z,9.13
2023-01-29T19:12:49.352Z,7.13
2023-01-29T19:15:20.509Z,8.73
2023-01-29T19:17:47.318Z,7.50
2023-01-29T19:20:14.032Z,9.10
2023-01-29T19:22:40.813Z,6.53
2023-01-29T19:25:08.278Z,11.82
2023-01-29T19:27:34.970Z,5.53
2023-01-29T19:30:02.156Z,7.63
2023-01-29T19:32:28.961Z,6.55
2023-01-29T19:34:55.737Z,7.80
2023-01-29T19:37:22.429Z,6.25
2023-01-29T19:39:49.224Z,8.43
2023-01-29T19:42:16.012Z,5.85
2023-01-29T19:44:42.917Z,6.70
2023-01-29T19:47:09.678Z,6.85
2023-01-29T19:49:36.429Z,7.57
2023-01-29T19:52:03.399Z,5.43
2023-01-29T19:54:30.293Z,5.80
2023-01-29T19:56:56.988Z,6.88
2023-01-29T19:59:23.846Z,6.40
2023-01-29T20:01:50.574Z,4.68
2023-01-29T20:04:17.368Z,6.68
2023-01-29T20:06:44.618Z,6.85
2023-01-29T20:09:11.496Z,6.97
2023-01-29T20:11:38.226Z,5.53
2023-01-29T20:14:04.915Z,5.97
2023-01-29T20:16:31.701Z,5.85
2023-01-29T20:19:14.070Z,5.60
2023-01-29T20:21:45.255Z,7.53
2023-01-29T20:24:13.183Z,5.22
2023-01-29T20:26:40.068Z,7.18
2023-01-29T20:29:06.873Z,4.93
2023-01-29T20:31:33.984Z,4.28
2023-01-29T20:34:00.736Z,6.80
2023-01-29T20:36:27.505Z,5.10
2023-01-29T20:38:54.222Z,5.85
2023-01-29T20:41:21.193Z,6.80
2023-01-29T20:43:50.172Z,6.18
2023-01-29T20:46:17.600Z,6.10
2023-01-29T20:48:44.337Z,14.10
2023-01-29T20:51:16.169Z,7.28
2023-01-29T20:53:45.392Z,5.35
2023-01-29T20:56:13.252Z,4.95
2023-01-29T20:58:41.062Z,5.50
2023-01-29T21:01:12.178Z,6.15
2023-01-29T21:03:39.758Z,6.60
2023-01-29T21:06:07.519Z,6.00
2023-01-29T21:08:35.302Z,6.95
2023-01-29T21:11:02.867Z,7.05
2023-01-29T21:13:29.674Z,6.38
2023-01-29T21:15:56.398Z,6.30
2023-01-29T21:18:25.694Z,4.57
2023-01-29T21:23:19.796Z,5.68
2023-01-29T21:25:46.670Z,6.30
2023-01-29T21:28:13.433Z,5.05
2023-01-29T21:30:40.175Z,7.07
2023-01-29T21:33:06.980Z,6.47
2023-01-29T21:35:36.678Z,5.93
2023-01-29T21:38:03.873Z,10.13
2023-01-29T21:40:30.677Z,4.90
2023-01-29T21:43:12.520Z,7.47
2023-01-29T21:45:40.124Z,5.85
2023-01-29T21:48:07.119Z,7.88
2023-01-29T21:50:33.844Z,4.90
2023-01-29T21:53:01.092Z,7.30
2023-01-29T21:55:27.864Z,6.22
2023-01-29T21:57:54.581Z,5.65
2023-01-29T22:00:21.386Z,5.60
2023-01-29T22:02:50.034Z,5.95
2023-01-29T22:05:19.792Z,5.20
2023-01-29T22:07:48.192Z,5.68
2023-01-29T22:10:19.162Z,5.80
2023-01-29T22:12:46.956Z,8.73
2023-01-29T22:15:14.272Z,5.60
2023-01-29T22:17:41.535Z,4.88
2023-01-29T22:20:13.127Z,4.80
2023-01-29T22:22:40.014Z,7.10
2023-01-29T22:25:07.039Z,5.15
2023-01-29T22:27:34.012Z,6.18
2023-01-29T22:30:00.771Z,6.20
2023-01-29T22:32:27.571Z,6.38
2023-01-29T22:34:54.412Z,6.07
2023-01-29T22:37:21.175Z,5.18
2023-01-29T22:39:47.899Z,9.32
2023-01-29T22:42:14.577Z,8.70
2023-01-29T22:44:41.373Z,6.57
2023-01-29T22:47:08.060Z,6.03
2023-01-29T22:49:34.782Z,7.22
2023-01-29T22:52:10.522Z,7.07
2023-01-29T22:54:38.952Z,5.13
2023-01-29T22:57:05.998Z,9.80
2023-01-29T22:59:33.136Z,8.25
2023-01-29T23:02:00.020Z,5.53
2023-01-29T23:04:27.087Z,5.82
2023-01-29T23:06:54.034Z,6.28
2023-01-29T23:09:20.799Z,7.03
2023-01-29T23:11:47.507Z,6.60
2023-01-29T23:14:14.233Z,8.00
2023-01-29T23:16:41.038Z,6.00
2023-01-29T23:19:07.907Z,6.97
2023-01-29T23:21:34.622Z,6.60
2023-01-29T23:24:01.525Z,5.75
2023-01-29T23:26:48.328Z,6.13
2023-01-29T23:29:15.115Z,6.25
2023-01-29T23:31:41.976Z,5.70
2023-01-29T23:34:08.903Z,7.25
2023-01-29T23:36:35.615Z,5.53
2023-01-29T23:39:02.518Z,7.93
2023-01-29T23:41:29.218Z,5.38
2023-01-29T23:43:56.024Z,5.70
2023-01-29T23:46:22.996Z,6.97
2023-01-29T23:48:49.728Z,6.45
2023-01-29T23:51:16.635Z,8.05
2023-01-29T23:53:43.352Z,7.72
2023-01-29T23:56:11.027Z,6.88
2023-01-29T23:58:38.012Z,9.57
